Time;durP1;ratioP1;P1;durP2;ratioP2;P2;SDS_P1;SDS_P2;PMS_P1;PMS_P2;Temp;Humidity;BMP_temperature;BMP_pressure;BME280_temperature;BME280_humidity;BME280_pressure;Samples;Min_cycle;Max_cycle;Signal;HPM_P1;HPM_P2
2022/12/14 00:00:59;;;;;;;46.25;31.10;;;-3.20;99.90;;;;;;4992892;28;20819;-80
2022/12/14 00:03:24;;;;;;;39.33;29.57;;;-3.20;99.90;;;;;;5025264;28;20428;-80
2022/12/14 00:05:50;;;;;;;41.80;31.10;;;-3.30;99.90;;;;;;5008765;28;20932;-80
2022/12/14 00:08:17;;;;;;;43.92;32.17;;;-3.40;99.90;;;;;;5009870;28;20404;-80
2022/12/14 00:10:43;;;;;;;38.47;29.77;;;-3.30;99.90;;;;;;5012005;28;20455;-75
2022/12/14 00:13:13;;;;;;;47.90;31.90;;;-3.20;99.90;;;;;;5028998;28;20461;-81
2022/12/14 00:15:39;;;;;;;42.00;30.17;;;-3.20;99.90;;;;;;5007472;28;20457;-79
2022/12/14 00:18:05;;;;;;;42.58;29.30;;;-3.10;99.90;;;;;;5009386;28;20413;-80
2022/12/14 00:20:32;;;;;;;51.30;30.90;;;-3.10;99.90;;;;;;5014870;28;20481;-79
2022/12/14 00:22:57;;;;;;;44.92;29.15;;;-3.20;99.90;;;;;;5016017;28;20463;-81
2022/12/14 00:25:23;;;;;;;40.57;30.03;;;-3.20;99.90;;;;;;5017207;28;20462;-80
2022/12/14 00:27:50;;;;;;;38.55;27.75;;;-3.10;99.90;;;;;;5019744;28;20520;-80
2022/12/14 00:30:18;;;;;;;43.95;31.33;;;-3.00;99.90;;;;;;5022231;28;20876;-80
2022/12/14 00:32:44;;;;;;;41.47;27.20;;;-3.00;99.90;;;;;;5009758;28;21027;-80
2022/12/14 00:35:16;;;;;;;42.13;29.88;;;-3.10;99.90;;;;;;5005319;28;20425;-78
2022/12/14 00:37:42;;;;;;;43.00;29.38;;;-2.80;99.90;;;;;;4994610;28;20471;-80
2022/12/14 00:40:09;;;;;;;37.60;28.03;;;-3.20;99.90;;;;;;5008581;28;20460;-78
2022/12/14 00:42:35;;;;;;;41.70;29.17;;;-3.30;99.90;;;;;;5001009;28;20783;-79
2022/12/14 00:45:02;;;;;;;42.58;30.20;;;-3.30;99.90;;;;;;4993839;28;20444;-80
2022/12/14 00:47:28;;;;;;;39.30;27.50;;;-3.30;99.90;;;;;;5012936;28;20420;-81
2022/12/14 00:49:53;;;;;;;37.88;27.92;;;-3.70;99.90;;;;;;5027825;28;20415;-80
2022/12/14 00:52:20;;;;;;;41.60;29.40;;;-3.80;99.90;;;;;;5017848;28;20429;-80
2022/12/14 00:54:46;;;;;;;38.03;27.98;;;-4.00;99.90;;;;;;5008002;28;20428;-80
2022/12/14 00:57:11;;;;;;;43.20;30.05;;;-3.80;99.90;;;;;;5007326;28;20511;-81
2022/12/14 00:59:37;;;;;;;38.57;27.80;;;-3.90;99.90;;;;;;5007368;28;20974;-79
2022/12/14 01:02:03;;;;;;;45.83;30.23;;;-3.80;99.90;;;;;;5008594;28;20429;-78
2022/12/14 01:04:29;;;;;;;45.10;29.00;;;-3.80;99.90;;;;;;5006721;28;20444;-80
2022/12/14 01:06:55;;;;;;;38.50;29.00;;;-3.80;99.90;;;;;;5003919;28;20436;-79
2022/12/14 01:09:23;;;;;;;39.38;27.48;;;-4.00;99.90;;;;;;4989329;28;20856;-77
2022/12/14 01:11:49;;;;;;;42.40;29.27;;;-4.20;99.90;;;;;;5015031;28;20450;-78
2022/12/14 01:14:16;;;;;;;39.22;28.20;;;-4.30;99.90;;;;;;4988106;28;20436;-79
2022/12/14 01:16:42;;;;;;;40.37;28.53;;;-4.40;99.90;;;;;;5005027;28;20477;-80
2022/12/14 01:19:11;;;;;;;40.85;28.98;;;-4.50;99.90;;;;;;4988422;28;20418;-79
2022/12/14 01:21:37;;;;;;;40.23;28.77;;;-4.30;99.90;;;;;;5004157;28;20775;-82
2022/12/14 01:24:04;;;;;;;40.78;29.92;;;-4.20;99.90;;;;;;5001686;28;20799;-81
2022/12/14 01:26:34;;;;;;;42.43;30.97;;;-4.20;99.90;;;;;;5008293;28;20502;-81
2022/12/14 01:29:00;;;;;;;41.45;29.88;;;-4.20;99.90;;;;;;5018715;28;20872;-82
2022/12/14 01:31:29;;;;;;;43.83;29.75;;;-4.10;99.90;;;;;;5009338;28;20775;-78
2022/12/14 01:33:54;;;;;;;43.35;29.65;;;-4.10;99.90;;;;;;5016888;28;20440;-83
2022/12/14 01:36:23;;;;;;;42.33;30.30;;;-4.50;99.90;;;;;;5000993;28;20430;-82
2022/12/14 01:38:53;;;;;;;41.50;29.83;;;-4.60;99.90;;;;;;5017803;28;20530;-81
2022/12/14 01:41:35;;;;;;;43.47;30.30;;;-4.90;99.90;;;;;;5013326;28;20772;-81
2022/12/14 01:44:23;;;;;;;43.35;30.00;;;-4.90;99.90;;;;;;5004641;28;20480;-82
2022/12/14 01:46:54;;;;;;;43.40;30.77;;;-4.60;99.90;;;;;;4978856;28;20848;-80
2022/12/14 01:49:24;;;;;;;47.30;31.98;;;-4.50;99.90;;;;;;5006835;28;20408;-81
2022/12/14 01:51:59;;;;;;;43.78;29.75;;;-4.50;99.90;;;;;;5008290;28;20428;-80
2022/12/14 01:54:28;;;;;;;43.63;29.50;;;-4.80;99.90;;;;;;5011835;28;20429;-83
2022/12/14 01:56:55;;;;;;;47.22;32.78;;;-5.00;99.90;;;;;;5005889;28;20432;-82
2022/12/14 01:59:30;;;;;;;46.15;32.10;;;-4.80;99.90;;;;;;5006898;28;20436;-82
2022/12/14 02:01:58;;;;;;;47.47;31.67;;;-4.50;99.90;;;;;;5007463;28;20429;-81
2022/12/14 02:04:24;;;;;;;46.60;32.10;;;-4.50;99.90;;;;;;5007078;28;20799;-80
2022/12/14 02:06:51;;;;;;;44.95;31.63;;;-4.60;99.90;;;;;;5010897;28;20786;-75
2022/12/14 02:09:25;;;;;;;44.25;29.10;;;-4.80;99.90;;;;;;5015135;28;20453;-82
2022/12/14 02:12:09;;;;;;;43.75;29.92;;;-5.00;99.90;;;;;;4999729;28;20423;-81
2022/12/14 02:14:35;;;;;;;42.78;28.65;;;-5.10;99.90;;;;;;5011740;28;20451;-80
2022/12/14 02:17:01;;;;;;;43.90;30.70;;;-5.00;99.90;;;;;;5002338;28;20419;-78
2022/12/14 02:19:27;;;;;;;44.45;30.90;;;-4.80;99.90;;;;;;5009512;28;20752;-83
2022/12/14 02:22:20;;;;;;;45.78;30.70;;;-4.70;99.90;;;;;;5004603;28;20437;-82
2022/12/14 02:25:05;;;;;;;43.67;29.88;;;-4.80;99.90;;;;;;4995322;28;20908;-78
2022/12/14 02:27:57;;;;;;;43.20;30.67;;;-4.90;99.90;;;;;;5018892;28;20462;-80
2022/12/14 02:30:30;;;;;;;46.42;31.63;;;-4.80;99.90;;;;;;5002091;28;20515;-80
2022/12/14 02:33:14;;;;;;;50.33;34.23;;;-4.90;99.90;;;;;;5013566;28;20423;-80
2022/12/14 02:36:05;;;;;;;50.88;34.83;;;-5.00;99.90;;;;;;5011653;28;20428;-81
2022/12/14 02:38:49;;;;;;;53.28;36.50;;;-4.90;99.90;;;;;;5022566;28;20423;-81
2022/12/14 02:41:43;;;;;;;50.93;34.47;;;-5.00;99.90;;;;;;5011829;28;20439;-81
2022/12/14 02:44:20;;;;;;;51.65;36.42;;;-4.90;99.90;;;;;;5025942;28;20448;-80
2022/12/14 02:46:52;;;;;;;55.88;37.00;;;-5.00;99.90;;;;;;5011769;28;20420;-81
2022/12/14 02:49:42;;;;;;;48.10;33.67;;;-5.10;99.90;;;;;;5008756;28;20540;-78
2022/12/14 02:52:27;;;;;;;48.78;34.83;;;-5.00;99.90;;;;;;5009693;28;20428;-80
2022/12/14 02:55:11;;;;;;;50.38;33.90;;;-5.10;99.90;;;;;;4997691;28;20527;-81
2022/12/14 02:57:49;;;;;;;49.75;32.67;;;-5.20;99.90;;;;;;4992912;28;20441;-80
2022/12/14 03:00:15;;;;;;;47.90;34.15;;;-5.00;99.90;;;;;;5006355;28;20459;-80
2022/12/14 03:02:44;;;;;;;45.53;31.13;;;-5.10;99.90;;;;;;5009816;28;20785;-80
2022/12/14 03:05:10;;;;;;;48.10;30.80;;;-5.00;99.90;;;;;;4994401;28;20450;-80
2022/12/14 03:07:49;;;;;;;44.58;30.90;;;-5.00;99.90;;;;;;5008516;28;20531;-79
2022/12/14 03:10:38;;;;;;;43.03;31.30;;;-4.90;99.90;;;;;;5008138;28;20823;-81
2022/12/14 03:13:11;;;;;;;45.27;30.40;;;-5.00;99.90;;;;;;5009002;28;20508;-81
2022/12/14 03:15:40;;;;;;;46.70;31.08;;;-5.00;99.90;;;;;;5002663;28;20927;-81
2022/12/14 03:18:08;;;;;;;42.08;30.77;;;-5.00;99.90;;;;;;5011017;28;20534;-81
2022/12/14 03:20:36;;;;;;;42.15;29.90;;;-5.00;99.90;;;;;;5033888;28;20498;-81
2022/12/14 03:23:09;;;;;;;40.63;28.87;;;-5.00;99.90;;;;;;5013528;28;20465;-81
2022/12/14 03:25:46;;;;;;;43.42;30.08;;;-5.00;99.90;;;;;;4996207;28;20419;-81
2022/12/14 03:28:29;;;;;;;44.25;30.88;;;-5.10;99.90;;;;;;5011971;28;20433;-80
2022/12/14 03:31:09;;;;;;;41.70;29.15;;;-5.00;99.90;;;;;;5021536;28;20420;-80
2022/12/14 03:33:37;;;;;;;43.35;27.73;;;-5.10;99.90;;;;;;5024213;28;20424;-79
2022/12/14 03:36:10;;;;;;;40.25;29.00;;;-5.10;99.90;;;;;;5009799;28;20424;-79
2022/12/14 03:38:42;;;;;;;43.63;28.23;;;-5.10;99.90;;;;;;5007793;28;20430;-81
2022/12/14 03:41:26;;;;;;;41.10;28.50;;;-5.10;99.90;;;;;;5003476;28;20421;-79
2022/12/14 03:44:13;;;;;;;38.20;27.67;;;-5.10;99.90;;;;;;5000251;28;20517;-80
2022/12/14 03:47:11;;;;;;;36.50;25.48;;;-5.10;99.90;;;;;;5008643;28;20429;-79
2022/12/14 03:50:00;;;;;;;37.33;27.70;;;-5.10;99.90;;;;;;4992711;28;20424;-81
2022/12/14 03:52:36;;;;;;;37.10;25.63;;;-5.10;99.90;;;;;;5014465;28;20475;-80
2022/12/14 03:55:08;;;;;;;42.58;28.27;;;-5.10;99.90;;;;;;5002994;28;20755;-80
2022/12/14 03:57:46;;;;;;;40.13;26.88;;;-5.00;99.90;;;;;;5022121;28;20512;-81
2022/12/14 04:00:18;;;;;;;35.28;25.85;;;-5.00;99.90;;;;;;5008874;28;20823;-81
2022/12/14 04:02:55;;;;;;;38.78;25.38;;;-5.10;99.90;;;;;;5020652;28;20426;-81
2022/12/14 04:05:28;;;;;;;41.38;26.52;;;-4.90;99.90;;;;;;5000742;28;20483;-83
2022/12/14 04:08:01;;;;;;;37.35;26.42;;;-5.00;99.90;;;;;;5014928;28;20440;-82
2022/12/14 04:19:23;;;;;;;39.25;26.33;;;-5.10;99.90;;;;;;5005052;28;21077;-82
2022/12/14 04:22:01;;;;;;;36.63;26.13;;;-5.30;99.90;;;;;;5010371;28;20432;-82
2022/12/14 04:27:55;;;;;;;37.78;26.55;;;-5.80;99.90;;;;;;5007629;28;20424;-82
2022/12/14 04:30:21;;;;;;;39.03;25.73;;;-5.90;99.90;;;;;;4999930;28;20932;-80
2022/12/14 04:32:51;;;;;;;39.50;27.83;;;-6.00;99.90;;;;;;4999243;28;20452;-81
2022/12/14 04:35:24;;;;;;;42.47;28.20;;;-5.70;99.90;;;;;;5008155;28;20421;-81
2022/12/14 04:38:01;;;;;;;36.47;26.33;;;-5.70;99.90;;;;;;5009909;28;20424;-82
2022/12/14 04:40:42;;;;;;;41.88;27.08;;;-5.70;99.90;;;;;;5028672;28;20513;-83
2022/12/14 04:43:12;;;;;;;39.88;27.23;;;-5.90;99.90;;;;;;5008658;28;20480;-81
2022/12/14 04:45:55;;;;;;;39.40;25.63;;;-5.90;99.90;;;;;;4999711;28;20517;-83
2022/12/14 04:48:46;;;;;;;41.50;28.52;;;-5.80;99.90;;;;;;5008897;28;20432;-81
2022/12/14 04:51:26;;;;;;;42.55;27.80;;;-6.00;99.90;;;;;;5007039;28;20940;-81
2022/12/14 04:54:17;;;;;;;39.45;27.88;;;-5.80;99.90;;;;;;5007147;28;20432;-80
2022/12/14 04:56:53;;;;;;;41.15;27.50;;;-5.80;99.90;;;;;;4989838;28;20977;-81
2022/12/14 04:59:19;;;;;;;40.75;26.95;;;-6.00;99.90;;;;;;5008841;28;20425;-77
2022/12/14 05:02:16;;;;;;;40.45;27.73;;;-5.90;99.90;;;;;;4996124;28;20448;-80
2022/12/14 05:04:53;;;;;;;40.30;27.50;;;-5.80;99.90;;;;;;4988554;28;20439;-77
2022/12/14 05:07:47;;;;;;;38.97;28.17;;;-5.90;99.90;;;;;;4997385;28;20440;-81
2022/12/14 05:10:23;;;;;;;42.08;28.00;;;-5.80;99.90;;;;;;4992953;28;20420;-81
2022/12/14 05:12:51;;;;;;;35.85;25.75;;;-5.90;99.90;;;;;;5009122;28;20413;-82
2022/12/14 05:15:29;;;;;;;38.00;27.33;;;-5.90;99.90;;;;;;5005583;28;20833;-81
2022/12/14 05:17:59;;;;;;;40.40;28.35;;;-5.90;99.90;;;;;;5025734;28;20676;-79
2022/12/14 05:20:24;;;;;;;38.08;25.35;;;-5.90;99.90;;;;;;5009259;28;20443;-79
2022/12/14 05:22:50;;;;;;;42.17;28.57;;;-6.00;99.90;;;;;;5007919;28;20432;-81
2022/12/14 05:25:16;;;;;;;36.07;25.87;;;-5.90;99.90;;;;;;4998258;28;20433;-82
2022/12/14 05:27:41;;;;;;;45.33;29.58;;;-5.80;99.90;;;;;;5008359;28;20828;-81
2022/12/14 05:30:08;;;;;;;38.00;27.48;;;-5.70;99.90;;;;;;5007740;28;20424;-82
2022/12/14 05:32:34;;;;;;;37.83;26.75;;;-5.60;99.90;;;;;;5005067;28;20418;-79
2022/12/14 05:35:01;;;;;;;37.60;26.42;;;-5.60;99.90;;;;;;4991193;28;20424;-81
2022/12/14 05:37:27;;;;;;;38.65;25.30;;;-5.80;99.90;;;;;;5008459;28;20439;-82
2022/12/14 05:39:53;;;;;;;40.33;26.13;;;-6.00;99.90;;;;;;5007544;28;20428;-82
2022/12/14 05:42:19;;;;;;;40.83;26.88;;;-6.00;99.90;;;;;;5023918;28;20426;-80
2022/12/14 05:44:44;;;;;;;37.07;25.53;;;-6.00;99.90;;;;;;5008677;28;20539;-83
2022/12/14 05:47:10;;;;;;;40.93;27.40;;;-6.00;99.90;;;;;;5006747;28;20769;-77
2022/12/14 05:49:36;;;;;;;37.67;26.17;;;-6.00;99.90;;;;;;5006390;28;20805;-81
2022/12/14 05:52:02;;;;;;;36.72;25.20;;;-6.00;99.90;;;;;;5017204;28;20424;-81
2022/12/14 05:54:27;;;;;;;40.13;27.23;;;-6.10;99.90;;;;;;5008114;28;20942;-80
2022/12/14 05:56:53;;;;;;;37.73;25.93;;;-6.20;99.90;;;;;;5008281;28;20429;-80
2022/12/14 05:59:19;;;;;;;40.90;27.00;;;-6.30;99.90;;;;;;5007739;28;20436;-81
2022/12/14 06:01:44;;;;;;;38.35;26.90;;;-6.40;99.90;;;;;;4994977;28;20441;-81
2022/12/14 06:04:12;;;;;;;37.40;26.43;;;-6.50;99.90;;;;;;4987874;28;20430;-82
2022/12/14 06:06:37;;;;;;;39.83;26.77;;;-6.30;99.90;;;;;;5000130;28;20473;-83
2022/12/14 06:09:08;;;;;;;43.67;27.87;;;-6.30;99.90;;;;;;5009708;28;20864;-82
2022/12/14 06:11:39;;;;;;;40.60;25.55;;;-6.30;99.90;;;;;;5015227;28;20417;-82
2022/12/14 06:14:06;;;;;;;35.65;25.52;;;-6.30;99.90;;;;;;4998530;28;20417;-81
2022/12/14 06:16:32;;;;;;;37.55;25.48;;;-6.30;99.90;;;;;;5007888;28;20411;-80
2022/12/14 06:19:00;;;;;;;37.05;26.48;;;-6.40;99.90;;;;;;5012982;28;20510;-80
2022/12/14 06:21:28;;;;;;;40.10;27.02;;;-6.50;99.90;;;;;;4997536;28;20501;-81
2022/12/14 06:23:55;;;;;;;37.90;25.80;;;-6.60;99.90;;;;;;5005831;28;20437;-80
2022/12/14 06:26:22;;;;;;;40.60;27.27;;;-6.60;99.90;;;;;;5007482;28;20515;-79
2022/12/14 06:28:48;;;;;;;36.90;26.73;;;-6.60;99.90;;;;;;4990294;28;20433;-76
2022/12/14 06:31:15;;;;;;;40.33;27.15;;;-6.50;99.90;;;;;;5006272;28;20445;-80
2022/12/14 06:33:41;;;;;;;36.63;24.92;;;-5.80;99.90;;;;;;5005462;28;20436;-80
2022/12/14 06:36:16;;;;;;;39.35;27.23;;;-6.50;99.90;;;;;;5002271;28;20888;-80
2022/12/14 06:38:42;;;;;;;37.60;26.20;;;-6.70;99.90;;;;;;4991373;28;20606;-79
2022/12/14 06:41:08;;;;;;;39.85;26.95;;;-6.70;99.90;;;;;;4995941;28;20454;-80
2022/12/14 06:43:34;;;;;;;42.35;25.77;;;-6.60;99.90;;;;;;5012434;28;20432;-76
2022/12/14 06:45:59;;;;;;;39.23;25.83;;;-6.50;99.90;;;;;;5021906;28;20918;-79
2022/12/14 06:48:25;;;;;;;38.17;26.10;;;-6.50;99.90;;;;;;5006743;28;20417;-80
2022/12/14 06:50:50;;;;;;;37.63;25.58;;;-6.50;99.90;;;;;;5006404;28;20428;-79
2022/12/14 06:53:16;;;;;;;38.95;25.02;;;-6.50;99.90;;;;;;5012163;28;20415;-80
2022/12/14 06:55:42;;;;;;;42.87;25.97;;;-6.50;99.90;;;;;;5001450;28;20586;-81
2022/12/14 06:58:12;;;;;;;39.90;27.23;;;-6.50;99.90;;;;;;5007647;28;20771;-81
2022/12/14 07:00:38;;;;;;;41.58;26.70;;;-6.50;99.90;;;;;;5011953;28;20451;-81
2022/12/14 07:03:03;;;;;;;40.30;27.13;;;-6.40;99.90;;;;;;5011398;28;20512;-81
2022/12/14 07:05:29;;;;;;;38.90;26.80;;;-6.40;99.90;;;;;;5010229;28;20433;-78
2022/12/14 07:07:54;;;;;;;42.17;27.50;;;-6.40;99.90;;;;;;5025716;28;20484;-80
2022/12/14 07:10:20;;;;;;;43.42;25.95;;;-6.50;99.90;;;;;;5010544;28;20482;-82
2022/12/14 07:12:46;;;;;;;37.97;26.08;;;-6.50;99.90;;;;;;5015179;28;20426;-81
2022/12/14 07:15:11;;;;;;;40.17;26.85;;;-6.70;99.90;;;;;;5016991;28;20436;-77
2022/12/14 07:17:37;;;;;;;36.53;24.97;;;-6.80;99.90;;;;;;5009663;28;20525;-82
2022/12/14 07:20:05;;;;;;;40.08;25.50;;;-6.80;99.90;;;;;;5008622;28;20417;-80
2022/12/14 07:22:31;;;;;;;42.47;27.27;;;-6.90;99.90;;;;;;5011203;28;20420;-77
2022/12/14 07:24:57;;;;;;;40.53;27.15;;;-6.90;99.90;;;;;;5031789;28;20428;-80
2022/12/14 07:27:23;;;;;;;43.47;26.90;;;-6.90;99.90;;;;;;5015706;28;20434;-79
2022/12/14 07:29:49;;;;;;;40.10;27.50;;;-6.90;99.90;;;;;;5018926;28;20439;-80
2022/12/14 07:32:15;;;;;;;39.95;27.38;;;-6.80;99.90;;;;;;5009946;28;20427;-80
2022/12/14 07:34:40;;;;;;;39.80;25.57;;;-6.80;99.90;;;;;;5015556;28;20457;-80
2022/12/14 07:37:06;;;;;;;43.70;27.53;;;-6.80;99.90;;;;;;5019537;28;20510;-82
2022/12/14 07:39:31;;;;;;;42.10;28.63;;;-6.90;99.90;;;;;;5008729;28;20447;-82
2022/12/14 07:41:57;;;;;;;43.00;29.98;;;-7.00;99.90;;;;;;5012208;28;20444;-81
2022/12/14 07:44:23;;;;;;;41.97;28.17;;;-7.10;99.90;;;;;;5024820;28;20447;-80
2022/12/14 07:46:48;;;;;;;41.47;28.15;;;-7.00;99.90;;;;;;5011782;28;20427;-81
2022/12/14 07:49:14;;;;;;;39.23;28.10;;;-7.10;99.90;;;;;;5009111;28;20433;-77
2022/12/14 07:51:41;;;;;;;40.13;28.70;;;-6.90;99.90;;;;;;5009802;28;20405;-78
2022/12/14 07:54:07;;;;;;;37.72;25.88;;;-7.00;99.90;;;;;;5010099;28;21348;-81
2022/12/14 07:56:35;;;;;;;41.67;26.13;;;-7.10;99.90;;;;;;4999097;28;20429;-81
2022/12/14 07:59:03;;;;;;;40.20;28.08;;;-7.10;99.90;;;;;;5019532;28;20474;-78
2022/12/14 08:01:32;;;;;;;46.20;29.83;;;-7.20;99.90;;;;;;5013483;28;20437;-80
2022/12/14 08:04:03;;;;;;;47.55;30.38;;;-7.20;99.90;;;;;;5007032;28;20446;-81
2022/12/14 08:06:29;;;;;;;47.38;30.35;;;-7.10;99.90;;;;;;5021538;28;20927;-79
2022/12/14 08:08:56;;;;;;;45.00;29.50;;;-7.10;99.90;;;;;;5024287;28;20443;-78
2022/12/14 08:11:22;;;;;;;54.50;32.78;;;-6.90;99.90;;;;;;5008547;28;20883;-77
2022/12/14 08:14:01;;;;;;;48.05;33.17;;;-6.90;99.90;;;;;;5019108;28;20537;-78
2022/12/14 08:16:27;;;;;;;58.03;38.10;;;-6.80;99.90;;;;;;4989692;28;20418;-78
2022/12/14 08:18:54;;;;;;;69.47;39.53;;;-6.90;99.90;;;;;;5008534;28;22252;-78
2022/12/14 08:21:21;;;;;;;55.85;38.15;;;-6.70;99.90;;;;;;5020192;28;20420;-79
2022/12/14 08:23:52;;;;;;;58.00;39.47;;;-6.80;99.90;;;;;;5008726;28;20514;-79
2022/12/14 08:26:20;;;;;;;51.75;35.88;;;-6.60;99.90;;;;;;5003323;28;20442;-80
2022/12/14 08:28:47;;;;;;;53.10;33.50;;;-6.60;99.90;;;;;;5020792;28;20532;-83
2022/12/14 08:31:18;;;;;;;49.33;31.63;;;-6.50;99.90;;;;;;5008325;28;20779;-77
2022/12/14 08:33:44;;;;;;;47.05;30.27;;;-6.30;99.90;;;;;;5017399;28;20438;-79
2022/12/14 08:36:23;;;;;;;44.67;31.40;;;-6.40;99.90;;;;;;5009423;28;20421;-78
2022/12/14 08:38:56;;;;;;;45.00;30.10;;;-6.20;99.90;;;;;;5009266;28;20479;-79
2022/12/14 08:41:23;;;;;;;45.67;30.95;;;-6.20;99.90;;;;;;4995186;28;20458;-79
2022/12/14 08:43:50;;;;;;;43.15;30.88;;;-6.10;99.90;;;;;;5005190;28;20429;-72
2022/12/14 08:46:17;;;;;;;46.85;30.33;;;-5.90;99.90;;;;;;5024738;28;20426;-74
2022/12/14 08:48:42;;;;;;;42.53;28.38;;;-5.80;99.90;;;;;;5010420;28;20515;-73
2022/12/14 08:51:09;;;;;;;43.80;29.17;;;-5.70;99.90;;;;;;5008892;28;20529;-73
2022/12/14 08:53:36;;;;;;;38.80;27.50;;;-5.70;99.90;;;;;;5005594;28;20437;-75
2022/12/14 08:56:11;;;;;;;43.08;28.55;;;-5.70;99.90;;;;;;5007210;28;20428;-74
2022/12/14 08:58:41;;;;;;;41.63;28.65;;;-5.60;99.90;;;;;;4985423;28;20479;-74
2022/12/14 09:01:13;;;;;;;46.00;28.10;;;-5.40;99.90;;;;;;5015830;28;20432;-75
2022/12/14 09:03:40;;;;;;;42.95;30.60;;;-5.30;99.90;;;;;;5019938;28;20442;-74
2022/12/14 09:06:08;;;;;;;50.30;31.05;;;-5.20;99.90;;;;;;5010141;28;20493;-74
2022/12/14 09:08:35;;;;;;;46.90;28.47;;;-5.10;99.90;;;;;;5008167;28;20889;-73
2022/12/14 09:11:01;;;;;;;50.00;29.85;;;-5.00;99.90;;;;;;5006050;28;20504;-74
2022/12/14 09:13:28;;;;;;;42.33;28.85;;;-5.00;99.90;;;;;;5006571;28;20420;-74
2022/12/14 09:16:05;;;;;;;44.97;29.00;;;-4.80;99.90;;;;;;5008562;28;20412;-74
2022/12/14 09:18:33;;;;;;;46.28;29.65;;;-4.70;99.90;;;;;;5005903;28;20507;-74
2022/12/14 09:20:59;;;;;;;42.00;28.48;;;-4.50;99.90;;;;;;5010612;28;20477;-74
2022/12/14 09:23:27;;;;;;;37.85;25.45;;;-4.50;99.90;;;;;;5001952;28;20438;-72
2022/12/14 09:26:04;;;;;;;37.13;25.50;;;-4.30;99.90;;;;;;5004008;28;20537;-72
2022/12/14 09:28:32;;;;;;;41.42;25.65;;;-4.20;99.90;;;;;;4999327;28;20432;-74
2022/12/14 09:31:00;;;;;;;41.92;26.70;;;-4.10;99.90;;;;;;5010385;28;20436;-74
2022/12/14 09:33:27;;;;;;;41.75;26.65;;;-4.00;99.90;;;;;;5002825;28;20864;-74
2022/12/14 09:36:02;;;;;;;43.72;29.98;;;-3.90;99.90;;;;;;5007262;28;20433;-76
2022/12/14 09:38:30;;;;;;;44.55;28.90;;;-3.90;99.90;;;;;;5007956;28;20440;-76
2022/12/14 09:40:59;;;;;;;47.55;28.63;;;-3.80;99.90;;;;;;5008101;28;20413;-74
2022/12/14 09:43:46;;;;;;;46.42;30.08;;;-3.70;99.90;;;;;;5008356;28;20440;-74
2022/12/14 09:46:47;;;;;;;43.70;28.73;;;-3.60;99.90;;;;;;5006291;28;20416;-74
2022/12/14 09:49:38;;;;;;;44.63;27.48;;;-3.50;99.90;;;;;;4996354;28;20927;-74
2022/12/14 09:52:09;;;;;;;39.95;26.90;;;-3.30;99.90;;;;;;5005207;28;20421;-78
2022/12/14 09:54:37;;;;;;;43.35;27.73;;;-3.40;99.90;;;;;;5004137;28;20417;-75
2022/12/14 09:57:17;;;;;;;50.30;31.83;;;-3.30;99.90;;;;;;5006960;28;20424;-76
2022/12/14 09:59:43;;;;;;;48.53;27.87;;;-3.30;99.90;;;;;;5007347;28;20827;-76
2022/12/14 10:02:44;;;;;;;40.60;25.25;;;-3.20;99.90;;;;;;5007831;28;20499;-76
2022/12/14 10:05:13;;;;;;;34.33;23.23;;;-3.10;99.90;;;;;;5018247;28;20956;-76
2022/12/14 10:08:02;;;;;;;35.17;22.40;;;-3.00;99.90;;;;;;5007550;28;20471;-76
2022/12/14 10:11:10;;;;;;;33.40;21.98;;;-3.00;99.90;;;;;;5006064;28;20910;-76
2022/12/14 10:14:05;;;;;;;39.75;23.55;;;-2.90;99.90;;;;;;5005946;28;20533;-77
2022/12/14 10:16:46;;;;;;;34.70;22.50;;;-2.80;99.90;;;;;;5007618;28;20440;-76
2022/12/14 10:19:25;;;;;;;31.50;19.85;;;-2.80;99.90;;;;;;5004521;28;20454;-76
2022/12/14 10:21:59;;;;;;;31.37;20.93;;;-2.70;99.90;;;;;;5007007;28;20771;-78
2022/12/14 10:24:30;;;;;;;29.27;20.00;;;-2.70;99.90;;;;;;5006850;28;20445;-75
2022/12/14 10:26:56;;;;;;;32.03;22.10;;;-2.70;99.90;;;;;;5008382;28;20501;-75
2022/12/14 10:29:31;;;;;;;36.43;23.83;;;-2.70;99.90;;;;;;5007943;28;20507;-76
2022/12/14 10:32:09;;;;;;;31.83;22.67;;;-2.70;99.90;;;;;;5008219;28;20498;-76
2022/12/14 10:34:39;;;;;;;32.92;21.92;;;-2.60;99.90;;;;;;5007460;28;20438;-76
2022/12/14 10:37:11;;;;;;;30.50;20.13;;;-2.60;99.90;;;;;;5013129;28;20409;-78
2022/12/14 10:40:00;;;;;;;31.98;21.90;;;-2.60;99.90;;;;;;5008702;28;20480;-75
2022/12/14 10:42:52;;;;;;;31.08;20.75;;;-2.60;99.90;;;;;;5002322;28;20438;-76
2022/12/14 10:45:36;;;;;;;30.25;21.77;;;-2.50;99.90;;;;;;5012988;28;20421;-74
2022/12/14 10:48:28;;;;;;;35.65;22.70;;;-2.60;99.90;;;;;;4991832;28;20458;-76
2022/12/14 10:51:22;;;;;;;27.17;19.30;;;-2.60;99.90;;;;;;5000364;28;20435;-74
2022/12/14 10:53:53;;;;;;;37.03;22.57;;;-2.50;99.90;;;;;;5026549;28;20512;-75
2022/12/14 10:56:25;;;;;;;31.42;21.23;;;-2.40;99.90;;;;;;4991251;28;20509;-74
2022/12/14 10:59:13;;;;;;;29.27;21.45;;;-2.40;99.90;;;;;;5008528;28;20541;-79
2022/12/14 11:01:39;;;;;;;34.83;21.90;;;-2.30;99.90;;;;;;5005995;28;20865;-79
2022/12/14 11:04:10;;;;;;;31.05;20.30;;;-2.20;99.90;;;;;;5010811;28;20516;-79
2022/12/14 11:06:36;;;;;;;26.98;18.55;;;-2.10;99.90;;;;;;5013859;28;20463;-77
2022/12/14 11:09:20;;;;;;;25.73;19.00;;;-2.00;99.90;;;;;;5010928;28;20428;-77
2022/12/14 11:11:46;;;;;;;27.33;17.75;;;-2.00;99.90;;;;;;5011012;28;20428;-80
2022/12/14 11:14:23;;;;;;;26.70;19.15;;;-1.90;99.90;;;;;;5011328;28;20423;-78
2022/12/14 11:16:49;;;;;;;23.10;16.30;;;-1.80;99.90;;;;;;5010648;28;20419;-77
2022/12/14 11:19:20;;;;;;;24.08;16.90;;;-1.80;99.90;;;;;;5009020;28;20842;-81
2022/12/14 11:21:47;;;;;;;23.23;15.80;;;-1.70;99.90;;;;;;5011889;28;20434;-82
2022/12/14 11:24:27;;;;;;;24.92;18.55;;;-1.60;99.90;;;;;;4992985;28;20971;-82
2022/12/14 11:26:57;;;;;;;24.23;16.85;;;-1.50;99.90;;;;;;5009827;28;20457;-80
2022/12/14 11:29:34;;;;;;;18.63;13.38;;;-1.40;99.90;;;;;;5010592;28;20536;-75
2022/12/14 11:32:00;;;;;;;17.45;12.95;;;-1.40;99.90;;;;;;4991704;28;20463;-75
2022/12/14 11:34:40;;;;;;;20.43;13.40;;;-1.50;99.90;;;;;;5009272;28;20421;-74
2022/12/14 11:37:27;;;;;;;20.30;14.25;;;-1.40;99.90;;;;;;5010006;28;20508;-75
2022/12/14 11:39:59;;;;;;;21.75;15.32;;;-1.30;99.90;;;;;;5025064;28;20877;-76
2022/12/14 11:42:26;;;;;;;21.33;14.93;;;-1.30;99.90;;;;;;5009051;28;20458;-76
2022/12/14 11:44:53;;;;;;;21.65;14.20;;;-1.40;99.90;;;;;;5009902;28;20527;-74
2022/12/14 11:47:25;;;;;;;20.48;14.23;;;-1.30;99.90;;;;;;5007485;28;20471;-77
2022/12/14 11:49:56;;;;;;;21.00;14.03;;;-1.30;99.90;;;;;;5006343;28;20517;-73
2022/12/14 11:52:24;;;;;;;22.88;13.82;;;-1.20;99.90;;;;;;5008187;28;20552;-72
2022/12/14 11:54:53;;;;;;;21.45;15.27;;;-1.20;99.90;;;;;;5009696;28;20465;-72
2022/12/14 11:57:36;;;;;;;21.13;14.60;;;-1.10;99.90;;;;;;5009812;28;20504;-72
2022/12/14 12:00:05;;;;;;;23.17;15.13;;;-1.10;99.90;;;;;;5004585;28;20824;-73
2022/12/14 12:02:45;;;;;;;21.80;14.88;;;-1.00;99.90;;;;;;5007131;28;20466;-73
2022/12/14 12:05:15;;;;;;;22.08;14.93;;;-0.90;99.90;;;;;;5009260;28;20498;-73
2022/12/14 12:07:53;;;;;;;21.05;13.82;;;-1.00;99.90;;;;;;5008760;28;20497;-74
2022/12/14 12:10:20;;;;;;;21.48;14.68;;;-0.90;99.90;;;;;;5006282;28;20482;-75
2022/12/14 12:12:52;;;;;;;25.02;14.88;;;-0.80;99.90;;;;;;5008165;28;20427;-72
2022/12/14 12:15:24;;;;;;;23.10;14.98;;;-0.90;99.90;;;;;;5008941;28;20815;-73
2022/12/14 12:17:57;;;;;;;22.95;15.32;;;-0.70;99.90;;;;;;5007818;28;20518;-73
2022/12/14 12:20:36;;;;;;;23.02;14.32;;;-0.50;99.90;;;;;;5007028;28;20815;-74
2022/12/14 12:23:12;;;;;;;21.30;14.27;;;-0.50;99.90;;;;;;5008197;28;20477;-74
2022/12/14 12:25:41;;;;;;;20.77;14.00;;;-0.40;99.90;;;;;;5009208;28;20483;-73
2022/12/14 12:28:16;;;;;;;20.90;14.43;;;-0.30;99.90;;;;;;5024372;28;20454;-74
2022/12/14 12:30:47;;;;;;;19.55;12.73;;;-0.40;99.90;;;;;;5007566;28;20590;-73
2022/12/14 12:33:42;;;;;;;18.42;13.45;;;-0.50;99.90;;;;;;5008650;28;20467;-73
2022/12/14 12:36:08;;;;;;;22.10;14.93;;;-0.40;99.90;;;;;;5005617;28;20573;-73
2022/12/14 12:39:06;;;;;;;19.10;13.98;;;-0.40;99.90;;;;;;5007770;28;20438;-73
2022/12/14 12:41:50;;;;;;;20.95;13.95;;;-0.40;99.90;;;;;;4998115;28;20492;-74
2022/12/14 12:44:35;;;;;;;22.30;15.07;;;-0.30;99.90;;;;;;5006996;28;20428;-73
2022/12/14 12:47:16;;;;;;;22.25;14.85;;;-0.20;99.90;;;;;;5008350;28;20397;-73
2022/12/14 12:49:41;;;;;;;18.67;14.60;;;-0.20;99.90;;;;;;5004981;28;20567;-74
2022/12/14 12:52:21;;;;;;;20.92;13.50;;;-0.10;99.90;;;;;;5007132;28;20487;-73
2022/12/14 12:55:08;;;;;;;21.13;13.80;;;0.00;99.90;;;;;;5007495;28;20421;-72
2022/12/14 12:57:41;;;;;;;18.73;12.83;;;0.00;99.90;;;;;;5008571;28;20460;-71
2022/12/14 13:00:15;;;;;;;18.67;12.38;;;0.00;99.90;;;;;;4995983;28;20429;-73
2022/12/14 13:03:04;;;;;;;18.10;12.52;;;0.00;99.90;;;;;;5002809;28;20460;-72
2022/12/14 13:05:32;;;;;;;17.45;11.93;;;0.00;99.90;;;;;;4981839;28;20819;-72